Latest Weather Observations for Holmes Reef

IDQ60801

Issued at 3:35 am EST Saturday 26 July 2014 (issued every 30 minutes, with the page automatically refreshed every 10 minutes)

About weather observations | Map of weather stations | Latest weather observations for QLD | Other Formats
Station Details ID: 200732 Name: HOLMES REEF Lat: -16.47 Lon: 147.87 Height: 1.9 m
Data from the previous 72 hours. | See also: Recent months at Holmes Reef
Date/Time
EST
Temp
°C
App
Temp
°C
Dew
Point
Rel
Hum
%
Delta-T
°C
Wind Press
QNH
hPa
Press
MSL
hPa
Rain
since 9 am
mm
Dir
 
Spd
km/h
Gust
km/h
Spd
kts
Gust
kts
26/03:30am 23.8 - - - - SE 39 44 21 24 1018.9 - -
26/03:15am 23.8 - - - - SE 39 43 21 23 1019.0 1018.7 -
26/03:00am 23.8 - - - - SE 37 44 20 24 1019.1 - -
26/02:30am 23.7 - - - - SE 35 41 19 22 1019.6 - -
26/02:15am 23.8 - - - - ESE 32 - 17 - - 1019.6 -
26/02:00am 23.8 - - - - ESE 35 39 19 21 1020.0 - -
26/01:30am 23.9 - - - - ESE 37 43 20 23 1020.3 - -
26/01:15am 23.8 - - - - ESE 35 - 19 - - 1020.2 -
26/01:00am 23.8 - - - - ESE 35 41 19 22 1020.5 - -
26/12:30am 24.0 - - - - ESE 35 43 19 23 1020.8 - -
26/12:15am 24.0 - - - - ESE 35 - 19 - - 1020.6 -
26/12:00am 23.6 - - - - SE 28 35 15 19 1020.9 - -
 
Date/Time
EST
Temp
°C
App
Temp
°C
Dew
Point
Rel
Hum
%
Delta-T
°C
Wind Press
QNH
hPa
Press
MSL
hPa
Rain
since 9 am
mm
Dir
 
Spd
km/h
Gust
km/h
Spd
kts
Gust
kts
25/11:30pm 24.1 - - - - ESE 35 43 19 23 1021.0 - -
25/11:15pm 23.8 - - - - ESE 37 - 20 - - 1020.7 -
25/11:00pm 24.0 - - - - ESE 37 43 20 23 1021.2 - -
25/10:30pm 24.1 - - - - ESE 33 41 18 22 1021.2 - -
25/10:15pm 24.3 - - - - ESE 33 - 18 - - 1021.0 -
25/10:00pm 24.0 - - - - ESE 33 39 18 21 1021.2 - -
25/09:30pm 23.2 - - - - ESE 43 50 23 27 1021.2 - -
25/09:15pm 22.1 - - - - ESE 43 - 23 - - 1021.0 -
25/09:00pm 23.5 - - - - ESE 41 48 22 26 1020.8 - -
25/08:59pm 23.7 - - - - ESE 39 46 21 25 1020.9 - -
25/08:47pm 23.5 - - - - SE 33 41 18 22 1020.8 - -
25/08:30pm 23.7 - - - - ESE 44 54 24 29 1020.8 - -
25/08:15pm 23.5 - - - - ESE 43 - 23 - - 1020.3 -
25/08:00pm 23.1 - - - - ESE 46 52 25 28 1020.5 - -
25/07:30pm 24.0 - - - - ESE 35 41 19 22 1020.1 - -
25/07:15pm 24.1 - - - - ESE 37 - 20 - - 1019.4 -
25/07:00pm 24.2 - - - - ESE 37 44 20 24 1019.5 - -
25/06:30pm 24.2 - - - - ESE 37 44 20 24 1018.9 - -
25/06:15pm 24.2 - - - - ESE 39 - 21 - - 1018.5 -
25/06:00pm 24.1 - - - - ESE 39 46 21 25 1018.7 - -
25/05:30pm 24.2 - - - - ESE 37 41 20 22 1018.5 - -
25/05:15pm 24.2 - - - - ESE 37 - 20 - - 1018.1 -
25/05:00pm 24.5 - - - - E 37 41 20 22 1018.6 - -
25/04:30pm 24.4 - - - - E 37 43 20 23 1018.3 - -
25/04:29pm 24.4 - - - - E 37 43 20 23 1018.3 - -
25/04:15pm 24.2 - - - - E 32 - 17 - - 1018.0 -
25/04:00pm 22.7 - - - - SSE 20 28 11 15 1018.3 - -
25/03:30pm 22.8 - - - - E 26 32 14 17 1018.0 - -
25/03:15pm 22.3 - - - - E 30 - 16 - - 1017.9 -
25/03:00pm 22.1 - - - - E 35 41 19 22 1018.3 - -
25/02:30pm 21.7 - - - - E 43 56 23 30 1018.3 - -
25/02:15pm 22.1 - - - - ESE 37 - 20 - - 1018.0 -
25/02:00pm 21.8 - - - - ESE 35 48 19 26 1018.3 - -
25/01:49pm 21.5 - - - - ESE 39 57 21 31 1018.5 - -
25/01:30pm 23.2 - - - - ESE 39 54 21 29 1018.2 - -
25/01:15pm 24.1 - - - - ESE 33 - 18 - - 1018.1 -
25/01:00pm 24.0 - - - - SE 32 39 17 21 1018.7 - -
25/12:30pm 24.1 - - - - ESE 37 44 20 24 1019.0 - -
25/12:15pm 23.9 - - - - ESE 37 - 20 - - 1018.7 -
25/12:00pm 24.0 - - - - ESE 43 48 23 26 1019.2 - -
25/11:30am 24.0 - - - - ESE 37 46 20 25 1019.5 - -
25/11:15am 24.0 - - - - ESE 33 - 18 - - 1019.3 -
25/11:00am 23.8 - - - - ESE 33 37 18 20 1019.8 - -
25/10:30am 23.5 - - - - ESE 44 52 24 28 1019.7 - -
25/10:15am 23.7 - - - - ESE 46 - 25 - - 1019.4 -
25/10:00am 24.0 - - - - ESE 46 54 25 29 1019.7 - -
25/09:30am 24.3 - - - - ESE 41 48 22 26 1019.7 - -
25/09:15am 24.0 - - - - ESE 30 - 16 - - 1019.6 -
25/09:00am 23.2 - - - - ESE 28 39 15 21 1020.0 - -
25/08:35am 22.4 - - - - ESE 37 41 20 22 1020.0 - -
25/08:30am 22.0 - - - - ENE 33 39 18 21 1020.1 - -
25/08:16am 22.0 - - - - ENE 41 54 22 29 1020.1 - -
25/08:15am 21.9 - - - - E 43 - 23 - - 1019.8 -
25/08:09am 23.7 - - - - E 35 54 19 29 1019.8 - -
25/08:00am 24.0 - - - - E 32 37 17 20 1019.5 - -
25/07:30am 24.2 - - - - E 35 41 19 22 1019.2 - -
25/07:15am 24.1 - - - - E 35 - 19 - - 1018.5 -
25/07:00am 24.3 - - - - E 37 43 20 23 1018.7 - -
25/06:30am 23.7 - - - - E 33 39 18 21 1018.4 - -
25/06:15am 23.9 - - - - E 35 - 19 - - 1017.9 -
25/06:00am 24.2 - - - - E 37 44 20 24 1017.9 - -
25/05:30am 23.5 - - - - E 41 46 22 25 1017.7 - -
25/05:15am 23.9 - - - - E 39 - 21 - - 1017.2 -
25/05:00am 23.9 - - - - E 35 41 19 22 1017.4 - -
25/04:30am 23.7 - - - - E 37 43 20 23 1017.2 - -
25/04:15am 23.8 - - - - E 37 - 20 - - 1016.8 -
25/04:00am 24.1 - - - - E 37 43 20 23 1017.2 - -
25/03:30am 23.9 - - - - E 30 35 16 19 1017.1 - -
25/03:15am 23.6 - - - - ESE 30 - 16 - - 1016.8 -
25/02:15am 23.6 - - - - E 39 - 21 - - 1017.1 -
25/01:15am 24.1 - - - - E 37 - 20 - - 1017.3 -
25/12:15am 24.2 - - - - E 37 - 20 - - 1017.8 -
25/12:00am 24.0 - - - - E 35 41 19 22 1018.3 - -
 
Date/Time
EST
Temp
°C
App
Temp
°C
Dew
Point
Rel
Hum
%
Delta-T
°C
Wind Press
QNH
hPa
Press
MSL
hPa
Rain
since 9 am
mm
Dir
 
Spd
km/h
Gust
km/h
Spd
kts
Gust
kts
24/11:30pm 23.6 - - - - E 28 32 15 17 1018.5 - -
24/11:15pm 23.5 - - - - ENE 24 - 13 - - 1018.3 -
24/11:00pm 23.2 - - - - NE 33 37 18 20 1018.7 - -
24/10:30pm 23.6 - - - - ENE 39 46 21 25 1018.6 - -
24/10:15pm 24.3 - - - - ENE 33 - 18 - - 1018.4 -
24/10:00pm 23.7 - - - - E 32 35 17 19 1018.7 - -
24/09:30pm 23.7 - - - - E 33 39 18 21 1018.6 - -
24/09:15pm 23.3 - - - - SE 15 - 8 - - 1018.3 -
24/09:00pm 22.2 - - - - SSE 19 32 10 17 1018.5 - -
24/08:30pm 22.7 - - - - SE 20 24 11 13 1018.2 - -
24/08:15pm 22.5 - - - - ESE 13 - 7 - - 1017.9 -
24/08:00pm 23.2 - - - - ENE 17 22 9 12 1018.2 - -
24/07:30pm 22.0 - - - - ENE 35 41 19 22 1017.7 - -
24/07:15pm 22.3 - - - - E 32 - 17 - - 1017.2 -
24/07:00pm 22.6 - - - - ESE 30 35 16 19 1017.2 - -
24/06:30pm 24.0 - - - - E 22 26 12 14 1017.0 - -
24/06:15pm 23.4 - - - - SE 13 - 7 - - 1016.5 -
24/06:00pm 23.4 - - - - SE 13 17 7 9 1016.5 - -
24/05:30pm 23.3 - - - - SE 17 19 9 10 1016.2 - -
24/05:15pm 23.4 - - - - SE 17 - 9 - - 1015.7 -
24/05:00pm 23.3 - - - - ESE 20 22 11 12 1015.8 - -
24/04:30pm 23.2 - - - - ESE 28 32 15 17 1015.5 - -
24/04:15pm 23.9 - - - - ESE 24 - 13 - - 1015.1 -
24/04:00pm 24.3 - - - - E 19 22 10 12 1015.2 - -
24/03:30pm 24.0 - - - - E 19 24 10 13 1015.1 - -
24/03:15pm 24.1 - - - - ESE 20 - 11 - - 1014.7 -
24/03:00pm 24.1 - - - - E 20 24 11 13 1015.1 - -
24/02:30pm 24.0 - - - - E 22 26 12 14 1015.3 - -
24/02:15pm 24.0 - - - - E 22 - 12 - - 1015.1 -
24/02:00pm 24.0 - - - - E 24 30 13 16 1015.4 - -
24/01:30pm 24.0 - - - - ESE 19 22 10 12 1015.7 - -
24/01:15pm 23.8 - - - - ESE 24 - 13 - - 1015.6 -
24/01:00pm 24.0 - - - - E 22 28 12 15 1016.3 - -
24/12:30pm 24.0 - - - - E 22 26 12 14 1016.6 - -
24/12:15pm 23.9 - - - - E 24 - 13 - - 1016.5 -
24/12:00pm 23.8 - - - - E 24 28 13 15 1017.0 - -
24/11:30am 23.8 - - - - E 28 32 15 17 1017.3 - -
24/11:15am 23.7 - - - - ESE 30 - 16 - - 1017.0 -
24/11:00am 23.8 - - - - E 28 32 15 17 1017.4 - -
24/10:30am 23.7 - - - - E 32 37 17 20 1017.5 - -
24/10:15am 23.8 - - - - E 32 - 17 - - 1017.3 -
24/10:00am 23.6 - - - - E 30 35 16 19 1017.7 - -
24/09:30am 23.6 - - - - E 33 39 18 21 1017.6 - -
24/09:15am 23.6 - - - - E 32 - 17 - - 1017.2 -
24/09:00am 23.7 - - - - E 32 35 17 19 1017.2 - -
24/08:30am 23.6 - - - - E 30 35 16 19 1016.8 - -
24/08:15am 23.6 - - - - E 30 - 16 - - 1016.3 -
24/08:00am 23.6 - - - - E 30 37 16 20 1016.5 - -
24/07:30am 23.4 - - - - E 30 35 16 19 1016.2 - -
24/07:15am 23.4 - - - - ESE 30 - 16 - - 1015.8 -
24/07:00am 23.2 - - - - ESE 30 35 16 19 1016.0 - -
24/06:30am 23.1 - - - - ESE 30 35 16 19 1015.6 - -
24/06:15am 23.3 - - - - ESE 30 - 16 - - 1015.2 -
24/06:00am 23.0 - - - - E 28 35 15 19 1015.5 - -
24/05:30am 23.1 - - - - E 28 35 15 19 1015.3 - -
24/05:15am 23.0 - - - - E 30 - 16 - - 1015.0 -
24/05:00am 23.1 - - - - E 28 32 15 17 1015.3 - -
24/04:30am 23.1 - - - - E 28 33 15 18 1015.2 - -
24/04:15am 23.1 - - - - E 28 - 15 - - 1014.9 -
24/04:00am 23.1 - - - - E 28 33 15 18 1015.2 - -
24/03:30am 22.9 - - - - E 30 35 16 19 1015.3 - -
24/03:15am 22.9 - - - - E 30 - 16 - - 1015.2 -
24/03:00am 22.9 - - - - E 30 35 16 19 1015.6 - -
24/02:30am 23.2 - - - - ESE 26 30 14 16 1015.9 - -
24/02:15am 23.1 - - - - ESE 26 - 14 - - 1015.7 -
24/02:00am 23.2 - - - - ESE 26 30 14 16 1016.1 - -
24/01:30am 23.2 - - - - ESE 26 32 14 17 1016.4 - -
24/01:15am 23.2 - - - - ESE 26 - 14 - - 1016.2 -
24/01:00am 23.2 - - - - ESE 26 30 14 16 1016.5 - -
24/12:15am 23.2 - - - - E 24 - 13 - - 1016.5 -
 
Date/Time
EST
Temp
°C
App
Temp
°C
Dew
Point
Rel
Hum
%
Delta-T
°C
Wind Press
QNH
hPa
Press
MSL
hPa
Rain
since 9 am
mm
Dir
 
Spd
km/h
Gust
km/h
Spd
kts
Gust
kts
23/11:30pm 23.1 - - - - ESE 26 30 14 16 1016.8 - -
23/11:15pm 23.2 - - - - ESE 28 - 15 - - 1016.6 -
23/11:00pm 23.3 - - - - E 30 35 16 19 1017.1 - -
23/10:30pm 23.3 - - - - E 30 37 16 20 1017.2 - -
23/10:15pm 23.4 - - - - ESE 32 - 17 - - 1017.0 -
23/10:00pm 23.3 - - - - E 32 37 17 20 1017.3 - -
23/09:30pm 23.5 - - - - ESE 32 35 17 19 1017.2 - -
23/09:15pm 23.4 - - - - ESE 35 - 19 - - 1016.8 -
23/09:00pm 23.3 - - - - E 32 39 17 21 1017.0 - -
23/08:30pm 23.3 - - - - ESE 33 39 18 21 1016.8 - -
23/08:15pm 23.4 - - - - ESE 33 - 18 - - 1016.3 -
23/08:00pm 23.3 - - - - ESE 33 37 18 20 1016.6 - -
23/07:15pm 23.3 - - - - ESE 24 - 13 - - 1016.0 -
23/07:00pm 23.3 - - - - ESE 24 32 13 17 1016.2 - -
23/06:30pm 23.3 - - - - SE 26 30 14 16 1015.9 - -
23/06:15pm 23.4 - - - - SE 28 - 15 - - 1015.5 -
23/06:00pm 23.4 - - - - SE 28 32 15 17 1015.6 - -
23/05:30pm 23.3 - - - - SE 28 33 15 18 1015.1 - -
23/05:15pm 23.3 - - - - SE 28 - 15 - - 1014.7 -
23/05:00pm 23.4 - - - - SE 26 30 14 16 1014.9 - -
23/04:30pm 23.5 - - - - SE 26 30 14 16 1014.8 - -
23/04:15pm 23.5 - - - - SE 28 - 15 - - 1014.4 -
23/04:00pm 23.4 - - - - SE 30 32 16 17 1014.6 - -
23/03:15pm 23.4 - - - - SE 28 - 15 - - 1014.3 -
23/02:15pm 23.4 - - - - SE 30 - 16 - - 1014.2 -
23/01:15pm 23.4 - - - - SE 30 - 16 - - 1014.5 -
23/12:15pm 23.4 - - - - ESE 32 - 17 - - 1015.2 -
23/12:00pm 23.5 - - - - SE 32 39 17 21 1015.7 - -
23/11:30am 23.3 - - - - ESE 32 37 17 20 1016.0 - -
23/11:15am 23.2 - - - - SE 33 - 18 - - 1015.9 -
23/11:00am 23.2 - - - - ESE 35 41 19 22 1016.4 - -
23/10:30am 23.3 - - - - SE 30 35 16 19 1016.8 - -
23/10:15am 23.1 - - - - SE 33 - 18 - - 1016.7 -
23/10:00am 23.3 - - - - SE 32 37 17 20 1017.2 - -
23/09:30am 23.0 - - - - ESE 30 35 16 19 1017.4 - -
23/09:15am 22.9 - - - - SE 35 - 19 - - 1017.1 -
23/09:00am 23.2 - - - - SE 37 43 20 23 1017.2 - -
23/08:30am 23.5 - - - - ESE 32 37 17 20 1017.1 - -
23/08:15am 23.4 - - - - ESE 30 - 16 - - 1016.8 -
23/08:00am 23.2 - - - - ESE 28 33 15 18 1017.0 - -
23/07:30am 23.3 - - - - ESE 28 33 15 18 1016.6 - -
23/07:15am 23.0 - - - - ESE 28 - 15 - - 1016.2 -
23/07:00am 23.2 - - - - ESE 28 33 15 18 1016.3 - -
23/06:30am 23.1 - - - - ESE 26 32 14 17 1016.0 - -
23/06:15am 23.1 - - - - ESE 26 - 14 - - 1015.5 -
23/06:00am 23.1 - - - - ESE 28 32 15 17 1015.7 - -
23/05:30am 23.0 - - - - ESE 30 33 16 18 1015.6 - -
23/05:15am 23.0 - - - - ESE 28 - 15 - - 1015.1 -
23/05:00am 22.7 - - - - ESE 30 33 16 18 1015.2 - -
23/04:30am 22.9 - - - - ESE 30 33 16 18 1015.2 - -
23/04:15am 23.0 - - - - ESE 26 - 14 - - 1015.0 -
23/04:00am 22.6 - - - - ESE 24 35 13 19 1015.4 - -

Other Formats:

Comma delimited format used in spreadsheet applications
http://www.bom.gov.au/fwo/IDQ60801/IDQ60801.94289.axf

JavaScript Object Notation format (JSON) in row-major order
http://www.bom.gov.au/fwo/IDQ60801/IDQ60801.94289.json